sensor_id;sensor_type;location;lat;lon;timestamp;P1;durP1;ratioP1;P2;durP2;ratioP2
40955;SDS011;26687;48.254;11.454;2023-05-10T00:02:26;1.02;;;0.52;;
40955;SDS011;26687;48.254;11.454;2023-05-10T00:05:26;1.67;;;0.70;;
40955;SDS011;26687;48.254;11.454;2023-05-10T00:08:27;0.70;;;0.70;;
40955;SDS011;26687;48.254;11.454;2023-05-10T00:11:27;1.15;;;1.05;;
40955;SDS011;26687;48.254;11.454;2023-05-10T00:14:27;0.90;;;0.60;;
40955;SDS011;26687;48.254;11.454;2023-05-10T00:17:27;0.53;;;0.47;;
40955;SDS011;26687;48.254;11.454;2023-05-10T00:20:27;1.00;;;0.70;;
40955;SDS011;26687;48.254;11.454;2023-05-10T00:23:27;0.70;;;0.70;;
40955;SDS011;26687;48.254;11.454;2023-05-10T00:26:28;1.17;;;0.80;;
40955;SDS011;26687;48.254;11.454;2023-05-10T00:29:28;0.70;;;0.70;;
40955;SDS011;26687;48.254;11.454;2023-05-10T00:32:28;1.58;;;0.70;;
40955;SDS011;26687;48.254;11.454;2023-05-10T00:35:28;1.25;;;0.93;;
40955;SDS011;26687;48.254;11.454;2023-05-10T00:38:28;1.13;;;0.73;;
40955;SDS011;26687;48.254;11.454;2023-05-10T00:41:29;0.65;;;0.45;;
40955;SDS011;26687;48.254;11.454;2023-05-10T00:44:31;0.88;;;0.60;;
40955;SDS011;26687;48.254;11.454;2023-05-10T00:47:32;0.83;;;0.67;;
40955;SDS011;26687;48.254;11.454;2023-05-10T00:50:32;0.68;;;0.50;;
40955;SDS011;26687;48.254;11.454;2023-05-10T00:53:32;1.15;;;0.68;;
40955;SDS011;26687;48.254;11.454;2023-05-10T00:56:34;0.60;;;0.52;;
40955;SDS011;26687;48.254;11.454;2023-05-10T00:59:34;0.70;;;0.50;;
40955;SDS011;26687;48.254;11.454;2023-05-10T01:02:34;0.70;;;0.40;;
40955;SDS011;26687;48.254;11.454;2023-05-10T01:05:35;0.60;;;0.32;;
40955;SDS011;26687;48.254;11.454;2023-05-10T01:08:35;0.50;;;0.38;;
40955;SDS011;26687;48.254;11.454;2023-05-10T01:11:36;0.35;;;0.30;;
40955;SDS011;26687;48.254;11.454;2023-05-10T01:14:37;0.50;;;0.30;;
40955;SDS011;26687;48.254;11.454;2023-05-10T01:17:38;0.60;;;0.57;;
40955;SDS011;26687;48.254;11.454;2023-05-10T01:20:40;0.50;;;0.25;;
40955;SDS011;26687;48.254;11.454;2023-05-10T01:27:05;0.40;;;0.40;;
40955;SDS011;26687;48.254;11.454;2023-05-10T01:30:20;0.82;;;0.20;;
40955;SDS011;26687;48.254;11.454;2023-05-10T01:33:24;0.30;;;0.30;;
40955;SDS011;26687;48.254;11.454;2023-05-10T01:36:32;1.27;;;0.32;;
40955;SDS011;26687;48.254;11.454;2023-05-10T01:39:49;1.45;;;0.30;;
40955;SDS011;26687;48.254;11.454;2023-05-10T01:42:53;0.55;;;0.20;;
40955;SDS011;26687;48.254;11.454;2023-05-10T01:49:25;0.10;;;0.10;;
40955;SDS011;26687;48.254;11.454;2023-05-10T01:52:27;0.20;;;0.20;;
40955;SDS011;26687;48.254;11.454;2023-05-10T01:55:30;0.30;;;0.22;;
40955;SDS011;26687;48.254;11.454;2023-05-10T01:58:32;0.43;;;0.20;;
40955;SDS011;26687;48.254;11.454;2023-05-10T02:01:33;0.82;;;0.30;;
40955;SDS011;26687;48.254;11.454;2023-05-10T02:04:34;0.43;;;0.20;;
40955;SDS011;26687;48.254;11.454;2023-05-10T02:07:35;1.27;;;0.20;;
40955;SDS011;26687;48.254;11.454;2023-05-10T02:10:36;0.20;;;0.10;;
40955;SDS011;26687;48.254;11.454;2023-05-10T02:13:37;0.60;;;0.60;;
40955;SDS011;26687;48.254;11.454;2023-05-10T02:16:39;0.30;;;0.20;;
40955;SDS011;26687;48.254;11.454;2023-05-10T02:19:40;1.43;;;0.40;;
40955;SDS011;26687;48.254;11.454;2023-05-10T02:22:40;0.73;;;0.15;;
40955;SDS011;26687;48.254;11.454;2023-05-10T02:25:41;0.10;;;0.10;;
40955;SDS011;26687;48.254;11.454;2023-05-10T02:28:42;0.20;;;0.10;;
40955;SDS011;26687;48.254;11.454;2023-05-10T02:31:43;0.10;;;0.10;;
40955;SDS011;26687;48.254;11.454;2023-05-10T02:34:44;0.47;;;0.28;;
40955;SDS011;26687;48.254;11.454;2023-05-10T02:37:45;0.85;;;0.30;;
40955;SDS011;26687;48.254;11.454;2023-05-10T02:40:46;0.40;;;0.20;;
40955;SDS011;26687;48.254;11.454;2023-05-10T02:43:47;0.35;;;0.20;;
40955;SDS011;26687;48.254;11.454;2023-05-10T02:46:49;0.47;;;0.20;;
40955;SDS011;26687;48.254;11.454;2023-05-10T02:49:49;0.10;;;0.08;;
40955;SDS011;26687;48.254;11.454;2023-05-10T02:52:50;0.40;;;0.20;;
40955;SDS011;26687;48.254;11.454;2023-05-10T02:55:52;0.17;;;0.15;;
40955;SDS011;26687;48.254;11.454;2023-05-10T02:58:54;0.77;;;0.20;;
40955;SDS011;26687;48.254;11.454;2023-05-10T03:01:54;0.30;;;0.13;;
40955;SDS011;26687;48.254;11.454;2023-05-10T03:04:55;1.67;;;0.27;;
40955;SDS011;26687;48.254;11.454;2023-05-10T03:07:55;0.68;;;0.30;;
40955;SDS011;26687;48.254;11.454;2023-05-10T03:20:27;0.10;;;0.10;;
40955;SDS011;26687;48.254;11.454;2023-05-10T03:26:35;0.63;;;0.25;;
40955;SDS011;26687;48.254;11.454;2023-05-10T03:29:37;0.32;;;0.20;;
40955;SDS011;26687;48.254;11.454;2023-05-10T03:32:38;1.52;;;1.35;;
40955;SDS011;26687;48.254;11.454;2023-05-10T03:35:38;0.10;;;0.10;;
40955;SDS011;26687;48.254;11.454;2023-05-10T03:38:38;0.28;;;0.28;;
40955;SDS011;26687;48.254;11.454;2023-05-10T03:41:39;0.27;;;0.10;;
40955;SDS011;26687;48.254;11.454;2023-05-10T03:44:39;0.22;;;0.22;;
40955;SDS011;26687;48.254;11.454;2023-05-10T03:47:39;0.63;;;0.30;;
40955;SDS011;26687;48.254;11.454;2023-05-10T03:50:40;0.25;;;0.20;;
40955;SDS011;26687;48.254;11.454;2023-05-10T03:53:40;1.38;;;0.20;;
40955;SDS011;26687;48.254;11.454;2023-05-10T03:56:40;0.63;;;0.30;;
40955;SDS011;26687;48.254;11.454;2023-05-10T03:59:41;0.20;;;0.20;;
40955;SDS011;26687;48.254;11.454;2023-05-10T04:02:41;0.17;;;0.17;;
40955;SDS011;26687;48.254;11.454;2023-05-10T04:05:41;0.60;;;0.40;;
40955;SDS011;26687;48.254;11.454;2023-05-10T04:08:41;0.67;;;0.30;;
40955;SDS011;26687;48.254;11.454;2023-05-10T04:11:41;0.20;;;0.20;;
40955;SDS011;26687;48.254;11.454;2023-05-10T04:14:42;0.47;;;0.30;;
40955;SDS011;26687;48.254;11.454;2023-05-10T04:17:42;0.52;;;0.30;;
40955;SDS011;26687;48.254;11.454;2023-05-10T04:20:42;0.17;;;0.15;;
40955;SDS011;26687;48.254;11.454;2023-05-10T04:23:42;2.15;;;0.30;;
40955;SDS011;26687;48.254;11.454;2023-05-10T04:26:42;0.17;;;0.17;;
40955;SDS011;26687;48.254;11.454;2023-05-10T04:29:42;0.20;;;0.20;;
40955;SDS011;26687;48.254;11.454;2023-05-10T04:32:43;0.30;;;0.30;;
40955;SDS011;26687;48.254;11.454;2023-05-10T04:35:43;0.27;;;0.27;;
40955;SDS011;26687;48.254;11.454;2023-05-10T04:38:44;0.40;;;0.38;;
40955;SDS011;26687;48.254;11.454;2023-05-10T04:41:44;0.75;;;0.20;;
40955;SDS011;26687;48.254;11.454;2023-05-10T04:44:45;1.40;;;0.20;;
40955;SDS011;26687;48.254;11.454;2023-05-10T04:47:45;0.20;;;0.20;;
40955;SDS011;26687;48.254;11.454;2023-05-10T04:50:45;0.40;;;0.40;;
40955;SDS011;26687;48.254;11.454;2023-05-10T04:53:45;0.25;;;0.25;;
40955;SDS011;26687;48.254;11.454;2023-05-10T04:56:45;0.27;;;0.20;;
40955;SDS011;26687;48.254;11.454;2023-05-10T04:59:45;0.20;;;0.10;;
40955;SDS011;26687;48.254;11.454;2023-05-10T05:02:46;1.27;;;0.10;;
40955;SDS011;26687;48.254;11.454;2023-05-10T05:05:46;0.00;;;0.00;;
40955;SDS011;26687;48.254;11.454;2023-05-10T05:08:46;0.38;;;0.13;;
40955;SDS011;26687;48.254;11.454;2023-05-10T05:11:46;0.00;;;0.00;;
40955;SDS011;26687;48.254;11.454;2023-05-10T05:14:46;0.23;;;0.07;;
40955;SDS011;26687;48.254;11.454;2023-05-10T05:17:47;0.00;;;0.00;;
40955;SDS011;26687;48.254;11.454;2023-05-10T05:20:47;0.27;;;0.10;;
40955;SDS011;26687;48.254;11.454;2023-05-10T05:23:47;1.33;;;0.10;;
40955;SDS011;26687;48.254;11.454;2023-05-10T05:26:47;1.75;;;0.20;;
40955;SDS011;26687;48.254;11.454;2023-05-10T05:29:48;0.15;;;0.10;;
40955;SDS011;26687;48.254;11.454;2023-05-10T05:32:48;0.22;;;0.10;;
40955;SDS011;26687;48.254;11.454;2023-05-10T05:35:48;0.60;;;0.30;;
40955;SDS011;26687;48.254;11.454;2023-05-10T05:38:50;1.10;;;0.30;;
40955;SDS011;26687;48.254;11.454;2023-05-10T05:41:50;0.47;;;0.10;;
40955;SDS011;26687;48.254;11.454;2023-05-10T05:44:50;1.00;;;0.10;;
40955;SDS011;26687;48.254;11.454;2023-05-10T05:47:51;0.30;;;0.17;;
40955;SDS011;26687;48.254;11.454;2023-05-10T05:50:54;0.73;;;0.17;;
40955;SDS011;26687;48.254;11.454;2023-05-10T05:53:54;0.20;;;0.20;;
40955;SDS011;26687;48.254;11.454;2023-05-10T05:56:55;0.30;;;0.20;;
40955;SDS011;26687;48.254;11.454;2023-05-10T05:59:55;2.03;;;0.30;;
40955;SDS011;26687;48.254;11.454;2023-05-10T06:02:56;0.23;;;0.20;;
40955;SDS011;26687;48.254;11.454;2023-05-10T06:05:56;0.30;;;0.20;;
40955;SDS011;26687;48.254;11.454;2023-05-10T06:08:56;1.02;;;0.40;;
40955;SDS011;26687;48.254;11.454;2023-05-10T06:11:56;0.47;;;0.30;;
40955;SDS011;26687;48.254;11.454;2023-05-10T06:14:57;1.80;;;0.38;;
40955;SDS011;26687;48.254;11.454;2023-05-10T06:17:57;1.10;;;0.50;;
40955;SDS011;26687;48.254;11.454;2023-05-10T06:20:57;1.40;;;0.40;;
40955;SDS011;26687;48.254;11.454;2023-05-10T06:23:57;0.73;;;0.40;;
40955;SDS011;26687;48.254;11.454;2023-05-10T06:26:58;2.10;;;0.60;;
40955;SDS011;26687;48.254;11.454;2023-05-10T06:30:00;1.13;;;0.63;;
40955;SDS011;26687;48.254;11.454;2023-05-10T06:33:00;0.50;;;0.33;;
40955;SDS011;26687;48.254;11.454;2023-05-10T06:36:00;0.75;;;0.60;;
40955;SDS011;26687;48.254;11.454;2023-05-10T06:39:00;1.50;;;0.40;;
40955;SDS011;26687;48.254;11.454;2023-05-10T06:42:01;1.83;;;0.50;;
40955;SDS011;26687;48.254;11.454;2023-05-10T06:45:02;7.00;;;0.65;;
40955;SDS011;26687;48.254;11.454;2023-05-10T06:48:03;2.17;;;0.50;;
40955;SDS011;26687;48.254;11.454;2023-05-10T06:51:03;1.58;;;0.38;;
40955;SDS011;26687;48.254;11.454;2023-05-10T06:54:03;1.13;;;0.40;;
40955;SDS011;26687;48.254;11.454;2023-05-10T06:57:03;1.42;;;0.40;;
40955;SDS011;26687;48.254;11.454;2023-05-10T07:00:05;1.02;;;0.30;;
40955;SDS011;26687;48.254;11.454;2023-05-10T07:03:05;0.32;;;0.20;;
40955;SDS011;26687;48.254;11.454;2023-05-10T07:06:06;0.70;;;0.50;;
40955;SDS011;26687;48.254;11.454;2023-05-10T07:09:07;0.57;;;0.57;;
40955;SDS011;26687;48.254;11.454;2023-05-10T07:12:07;0.30;;;0.28;;
40955;SDS011;26687;48.254;11.454;2023-05-10T07:15:08;1.13;;;0.40;;
40955;SDS011;26687;48.254;11.454;2023-05-10T07:18:08;0.50;;;0.40;;
40955;SDS011;26687;48.254;11.454;2023-05-10T07:21:08;0.60;;;0.57;;
40955;SDS011;26687;48.254;11.454;2023-05-10T07:24:08;1.27;;;0.60;;
40955;SDS011;26687;48.254;11.454;2023-05-10T07:27:09;1.00;;;0.90;;
40955;SDS011;26687;48.254;11.454;2023-05-10T07:30:09;3.53;;;1.27;;
40955;SDS011;26687;48.254;11.454;2023-05-10T07:33:10;0.52;;;0.50;;
40955;SDS011;26687;48.254;11.454;2023-05-10T07:36:10;0.82;;;0.30;;
40955;SDS011;26687;48.254;11.454;2023-05-10T07:39:10;1.17;;;0.40;;
40955;SDS011;26687;48.254;11.454;2023-05-10T07:42:10;2.90;;;0.50;;
40955;SDS011;26687;48.254;11.454;2023-05-10T07:45:11;1.23;;;0.45;;
40955;SDS011;26687;48.254;11.454;2023-05-10T07:48:11;0.40;;;0.40;;
40955;SDS011;26687;48.254;11.454;2023-05-10T07:51:11;2.00;;;0.50;;
40955;SDS011;26687;48.254;11.454;2023-05-10T07:54:12;0.82;;;0.30;;
40955;SDS011;26687;48.254;11.454;2023-05-10T07:57:12;2.83;;;1.60;;
40955;SDS011;26687;48.254;11.454;2023-05-10T08:00:16;0.73;;;0.60;;
40955;SDS011;26687;48.254;11.454;2023-05-10T08:03:17;2.78;;;0.68;;
40955;SDS011;26687;48.254;11.454;2023-05-10T08:06:17;0.97;;;0.83;;
40955;SDS011;26687;48.254;11.454;2023-05-10T08:09:18;0.70;;;0.45;;
40955;SDS011;26687;48.254;11.454;2023-05-10T08:12:23;1.30;;;0.55;;
40955;SDS011;26687;48.254;11.454;2023-05-10T08:15:23;0.38;;;0.30;;
40955;SDS011;26687;48.254;11.454;2023-05-10T08:18:24;0.50;;;0.40;;
40955;SDS011;26687;48.254;11.454;2023-05-10T08:21:25;2.20;;;0.50;;
40955;SDS011;26687;48.254;11.454;2023-05-10T08:24:25;0.70;;;0.30;;
40955;SDS011;26687;48.254;11.454;2023-05-10T08:27:26;1.95;;;0.50;;
40955;SDS011;26687;48.254;11.454;2023-05-10T08:30:26;1.42;;;0.60;;
40955;SDS011;26687;48.254;11.454;2023-05-10T08:33:26;0.55;;;0.38;;
40955;SDS011;26687;48.254;11.454;2023-05-10T08:36:26;1.03;;;0.43;;
40955;SDS011;26687;48.254;11.454;2023-05-10T08:39:27;2.05;;;0.47;;
40955;SDS011;26687;48.254;11.454;2023-05-10T08:42:28;2.17;;;0.40;;
40955;SDS011;26687;48.254;11.454;2023-05-10T08:45:29;0.60;;;0.52;;
40955;SDS011;26687;48.254;11.454;2023-05-10T08:48:31;1.55;;;0.30;;
40955;SDS011;26687;48.254;11.454;2023-05-10T08:51:35;2.03;;;0.40;;
40955;SDS011;26687;48.254;11.454;2023-05-10T08:54:36;3.63;;;0.30;;
40955;SDS011;26687;48.254;11.454;2023-05-10T08:57:36;1.85;;;0.55;;
40955;SDS011;26687;48.254;11.454;2023-05-10T09:00:36;1.88;;;0.60;;
40955;SDS011;26687;48.254;11.454;2023-05-10T09:03:40;0.70;;;0.30;;
40955;SDS011;26687;48.254;11.454;2023-05-10T09:06:41;0.40;;;0.30;;
40955;SDS011;26687;48.254;11.454;2023-05-10T09:09:41;0.65;;;0.30;;
40955;SDS011;26687;48.254;11.454;2023-05-10T09:12:42;3.45;;;0.60;;
40955;SDS011;26687;48.254;11.454;2023-05-10T09:15:44;0.90;;;0.40;;
40955;SDS011;26687;48.254;11.454;2023-05-10T09:18:44;3.28;;;1.40;;
40955;SDS011;26687;48.254;11.454;2023-05-10T09:21:44;0.85;;;0.35;;
40955;SDS011;26687;48.254;11.454;2023-05-10T09:24:45;0.57;;;0.40;;
40955;SDS011;26687;48.254;11.454;2023-05-10T09:27:46;1.98;;;0.50;;
40955;SDS011;26687;48.254;11.454;2023-05-10T09:30:46;0.38;;;0.30;;
40955;SDS011;26687;48.254;11.454;2023-05-10T09:33:52;0.73;;;0.30;;
40955;SDS011;26687;48.254;11.454;2023-05-10T09:36:54;1.45;;;0.30;;
40955;SDS011;26687;48.254;11.454;2023-05-10T09:39:54;1.10;;;0.45;;
40955;SDS011;26687;48.254;11.454;2023-05-10T09:45:55;0.40;;;0.30;;
40955;SDS011;26687;48.254;11.454;2023-05-10T09:48:55;0.88;;;0.30;;
40955;SDS011;26687;48.254;11.454;2023-05-10T09:55:02;0.50;;;0.50;;
40955;SDS011;26687;48.254;11.454;2023-05-10T09:58:04;1.90;;;0.20;;
40955;SDS011;26687;48.254;11.454;2023-05-10T10:01:10;0.40;;;0.20;;
40955;SDS011;26687;48.254;11.454;2023-05-10T10:04:11;1.63;;;0.25;;
40955;SDS011;26687;48.254;11.454;2023-05-10T10:07:11;2.08;;;0.40;;
40955;SDS011;26687;48.254;11.454;2023-05-10T10:10:11;0.93;;;0.50;;
40955;SDS011;26687;48.254;11.454;2023-05-10T10:13:12;0.63;;;0.30;;
40955;SDS011;26687;48.254;11.454;2023-05-10T10:16:12;1.43;;;0.30;;
40955;SDS011;26687;48.254;11.454;2023-05-10T10:19:13;1.40;;;0.40;;
40955;SDS011;26687;48.254;11.454;2023-05-10T10:22:14;1.17;;;0.30;;
40955;SDS011;26687;48.254;11.454;2023-05-10T10:25:15;1.33;;;0.30;;
40955;SDS011;26687;48.254;11.454;2023-05-10T10:32:01;1.75;;;0.50;;
40955;SDS011;26687;48.254;11.454;2023-05-10T10:34:39;1.30;;;0.40;;
40955;SDS011;26687;48.254;11.454;2023-05-10T10:37:43;0.85;;;0.30;;
40955;SDS011;26687;48.254;11.454;2023-05-10T10:40:44;1.98;;;0.32;;
40955;SDS011;26687;48.254;11.454;2023-05-10T10:43:44;2.30;;;0.30;;
40955;SDS011;26687;48.254;11.454;2023-05-10T10:46:58;0.93;;;0.40;;
40955;SDS011;26687;48.254;11.454;2023-05-10T10:56:06;0.70;;;0.30;;
40955;SDS011;26687;48.254;11.454;2023-05-10T10:59:07;1.83;;;0.50;;
40955;SDS011;26687;48.254;11.454;2023-05-10T11:02:08;0.88;;;0.35;;
40955;SDS011;26687;48.254;11.454;2023-05-10T11:08:33;1.85;;;0.50;;
40955;SDS011;26687;48.254;11.454;2023-05-10T11:11:34;2.45;;;0.98;;
40955;SDS011;26687;48.254;11.454;2023-05-10T11:14:34;2.35;;;0.80;;
40955;SDS011;26687;48.254;11.454;2023-05-10T11:17:35;1.88;;;0.95;;
40955;SDS011;26687;48.254;11.454;2023-05-10T11:20:39;1.43;;;1.00;;
40955;SDS011;26687;48.254;11.454;2023-05-10T11:26:39;0.93;;;0.82;;
40955;SDS011;26687;48.254;11.454;2023-05-10T11:29:40;1.35;;;0.90;;
40955;SDS011;26687;48.254;11.454;2023-05-10T11:32:40;1.55;;;1.38;;
40955;SDS011;26687;48.254;11.454;2023-05-10T11:35:41;2.27;;;1.40;;
40955;SDS011;26687;48.254;11.454;2023-05-10T11:38:41;2.38;;;1.23;;
40955;SDS011;26687;48.254;11.454;2023-05-10T11:41:42;1.73;;;0.90;;
40955;SDS011;26687;48.254;11.454;2023-05-10T11:44:45;1.67;;;0.85;;
40955;SDS011;26687;48.254;11.454;2023-05-10T11:47:48;2.45;;;0.70;;
40955;SDS011;26687;48.254;11.454;2023-05-10T11:50:48;1.17;;;0.63;;
40955;SDS011;26687;48.254;11.454;2023-05-10T11:53:49;2.20;;;0.70;;
40955;SDS011;26687;48.254;11.454;2023-05-10T11:56:50;1.58;;;0.50;;
40955;SDS011;26687;48.254;11.454;2023-05-10T11:59:53;1.73;;;0.60;;
40955;SDS011;26687;48.254;11.454;2023-05-10T12:02:54;1.40;;;0.40;;
40955;SDS011;26687;48.254;11.454;2023-05-10T12:05:55;1.35;;;0.70;;
40955;SDS011;26687;48.254;11.454;2023-05-10T12:08:56;1.52;;;0.70;;
40955;SDS011;26687;48.254;11.454;2023-05-10T12:11:56;2.53;;;0.90;;
40955;SDS011;26687;48.254;11.454;2023-05-10T12:15:01;0.47;;;0.40;;
40955;SDS011;26687;48.254;11.454;2023-05-10T12:18:03;0.53;;;0.20;;
40955;SDS011;26687;48.254;11.454;2023-05-10T12:21:03;0.75;;;0.47;;
40955;SDS011;26687;48.254;11.454;2023-05-10T12:24:04;0.77;;;0.30;;
40955;SDS011;26687;48.254;11.454;2023-05-10T12:27:09;0.60;;;0.30;;
40955;SDS011;26687;48.254;11.454;2023-05-10T12:30:12;0.47;;;0.22;;
40955;SDS011;26687;48.254;11.454;2023-05-10T12:33:13;0.68;;;0.38;;
40955;SDS011;26687;48.254;11.454;2023-05-10T12:36:15;1.13;;;0.40;;
40955;SDS011;26687;48.254;11.454;2023-05-10T12:39:16;2.35;;;0.70;;
40955;SDS011;26687;48.254;11.454;2023-05-10T12:42:16;2.67;;;0.85;;
40955;SDS011;26687;48.254;11.454;2023-05-10T12:45:17;2.20;;;0.63;;
40955;SDS011;26687;48.254;11.454;2023-05-10T12:48:17;1.38;;;0.90;;
40955;SDS011;26687;48.254;11.454;2023-05-10T12:51:17;0.80;;;0.60;;
40955;SDS011;26687;48.254;11.454;2023-05-10T12:54:21;2.05;;;0.82;;
40955;SDS011;26687;48.254;11.454;2023-05-10T12:57:22;1.23;;;0.60;;
40955;SDS011;26687;48.254;11.454;2023-05-10T13:00:22;0.82;;;0.70;;
40955;SDS011;26687;48.254;11.454;2023-05-10T13:03:22;1.67;;;1.07;;
40955;SDS011;26687;48.254;11.454;2023-05-10T13:06:23;0.60;;;0.40;;
40955;SDS011;26687;48.254;11.454;2023-05-10T13:09:23;1.50;;;0.40;;
40955;SDS011;26687;48.254;11.454;2023-05-10T13:12:23;1.03;;;0.40;;
40955;SDS011;26687;48.254;11.454;2023-05-10T13:15:23;0.50;;;0.50;;
40955;SDS011;26687;48.254;11.454;2023-05-10T13:18:23;0.50;;;0.37;;
40955;SDS011;26687;48.254;11.454;2023-05-10T13:21:24;0.80;;;0.68;;
40955;SDS011;26687;48.254;11.454;2023-05-10T13:24:25;0.65;;;0.65;;
40955;SDS011;26687;48.254;11.454;2023-05-10T13:27:25;1.33;;;0.57;;
40955;SDS011;26687;48.254;11.454;2023-05-10T13:30:25;0.55;;;0.35;;
40955;SDS011;26687;48.254;11.454;2023-05-10T13:33:25;1.00;;;0.90;;
40955;SDS011;26687;48.254;11.454;2023-05-10T13:36:26;0.90;;;0.80;;
40955;SDS011;26687;48.254;11.454;2023-05-10T13:39:26;1.27;;;0.50;;
40955;SDS011;26687;48.254;11.454;2023-05-10T13:42:26;0.93;;;0.70;;
40955;SDS011;26687;48.254;11.454;2023-05-10T13:45:27;1.10;;;0.77;;
40955;SDS011;26687;48.254;11.454;2023-05-10T13:48:27;0.60;;;0.60;;
40955;SDS011;26687;48.254;11.454;2023-05-10T13:51:27;1.73;;;0.60;;
40955;SDS011;26687;48.254;11.454;2023-05-10T13:54:27;1.50;;;0.95;;
40955;SDS011;26687;48.254;11.454;2023-05-10T13:57:29;1.35;;;0.90;;
40955;SDS011;26687;48.254;11.454;2023-05-10T14:00:30;0.90;;;0.70;;
40955;SDS011;26687;48.254;11.454;2023-05-10T14:03:30;0.60;;;0.60;;
40955;SDS011;26687;48.254;11.454;2023-05-10T14:06:30;0.65;;;0.60;;
40955;SDS011;26687;48.254;11.454;2023-05-10T14:09:31;2.08;;;0.98;;
40955;SDS011;26687;48.254;11.454;2023-05-10T14:12:31;2.00;;;0.90;;
40955;SDS011;26687;48.254;11.454;2023-05-10T14:15:31;1.10;;;0.90;;
40955;SDS011;26687;48.254;11.454;2023-05-10T14:18:31;1.33;;;0.90;;
40955;SDS011;26687;48.254;11.454;2023-05-10T14:21:31;1.47;;;0.60;;
40955;SDS011;26687;48.254;11.454;2023-05-10T14:24:32;1.15;;;0.52;;
40955;SDS011;26687;48.254;11.454;2023-05-10T14:27:32;1.92;;;1.30;;
40955;SDS011;26687;48.254;11.454;2023-05-10T14:30:32;1.43;;;0.60;;
40955;SDS011;26687;48.254;11.454;2023-05-10T14:33:34;0.90;;;0.60;;
40955;SDS011;26687;48.254;11.454;2023-05-10T14:36:34;0.90;;;0.43;;
40955;SDS011;26687;48.254;11.454;2023-05-10T14:39:34;2.50;;;0.50;;
40955;SDS011;26687;48.254;11.454;2023-05-10T14:42:35;1.33;;;0.63;;
40955;SDS011;26687;48.254;11.454;2023-05-10T14:45:35;0.83;;;0.60;;
40955;SDS011;26687;48.254;11.454;2023-05-10T14:48:35;1.13;;;0.63;;
40955;SDS011;26687;48.254;11.454;2023-05-10T14:51:35;1.08;;;0.60;;
40955;SDS011;26687;48.254;11.454;2023-05-10T14:54:36;0.93;;;0.60;;
40955;SDS011;26687;48.254;11.454;2023-05-10T14:57:36;3.05;;;0.70;;
40955;SDS011;26687;48.254;11.454;2023-05-10T15:00:37;1.23;;;0.90;;
40955;SDS011;26687;48.254;11.454;2023-05-10T15:03:37;0.50;;;0.40;;
40955;SDS011;26687;48.254;11.454;2023-05-10T15:06:37;0.95;;;0.45;;
40955;SDS011;26687;48.254;11.454;2023-05-10T15:09:38;0.57;;;0.40;;
40955;SDS011;26687;48.254;11.454;2023-05-10T15:12:38;1.23;;;0.60;;
40955;SDS011;26687;48.254;11.454;2023-05-10T15:15:38;0.93;;;0.57;;
40955;SDS011;26687;48.254;11.454;2023-05-10T15:18:38;0.83;;;0.40;;
40955;SDS011;26687;48.254;11.454;2023-05-10T15:21:38;0.73;;;0.60;;
40955;SDS011;26687;48.254;11.454;2023-05-10T15:24:40;0.90;;;0.47;;
40955;SDS011;26687;48.254;11.454;2023-05-10T15:27:41;0.90;;;0.60;;
40955;SDS011;26687;48.254;11.454;2023-05-10T15:30:43;0.80;;;0.60;;
40955;SDS011;26687;48.254;11.454;2023-05-10T15:33:43;1.60;;;0.70;;
40955;SDS011;26687;48.254;11.454;2023-05-10T15:36:44;0.40;;;0.40;;
40955;SDS011;26687;48.254;11.454;2023-05-10T15:39:44;1.55;;;0.60;;
40955;SDS011;26687;48.254;11.454;2023-05-10T15:42:44;0.90;;;0.50;;
40955;SDS011;26687;48.254;11.454;2023-05-10T15:45:45;0.65;;;0.50;;
40955;SDS011;26687;48.254;11.454;2023-05-10T15:48:45;0.40;;;0.30;;
40955;SDS011;26687;48.254;11.454;2023-05-10T15:51:45;0.40;;;0.20;;
40955;SDS011;26687;48.254;11.454;2023-05-10T15:54:45;0.40;;;0.20;;
40955;SDS011;26687;48.254;11.454;2023-05-10T15:57:46;0.50;;;0.30;;
40955;SDS011;26687;48.254;11.454;2023-05-10T16:00:47;0.63;;;0.40;;
40955;SDS011;26687;48.254;11.454;2023-05-10T16:03:47;0.97;;;0.30;;
40955;SDS011;26687;48.254;11.454;2023-05-10T16:06:47;1.33;;;0.30;;
40955;SDS011;26687;48.254;11.454;2023-05-10T16:09:48;0.50;;;0.40;;
40955;SDS011;26687;48.254;11.454;2023-05-10T16:12:48;1.33;;;0.38;;
40955;SDS011;26687;48.254;11.454;2023-05-10T16:15:48;1.02;;;0.38;;
40955;SDS011;26687;48.254;11.454;2023-05-10T16:18:48;1.92;;;0.52;;
40955;SDS011;26687;48.254;11.454;2023-05-10T16:21:49;2.25;;;0.90;;
40955;SDS011;26687;48.254;11.454;2023-05-10T16:24:49;0.85;;;0.73;;
40955;SDS011;26687;48.254;11.454;2023-05-10T16:27:52;0.82;;;0.60;;
40955;SDS011;26687;48.254;11.454;2023-05-10T16:30:52;1.65;;;1.05;;
40955;SDS011;26687;48.254;11.454;2023-05-10T16:33:52;1.08;;;0.50;;
40955;SDS011;26687;48.254;11.454;2023-05-10T16:36:53;0.90;;;0.50;;
40955;SDS011;26687;48.254;11.454;2023-05-10T16:39:53;1.25;;;0.60;;
40955;SDS011;26687;48.254;11.454;2023-05-10T16:42:53;1.27;;;0.47;;
40955;SDS011;26687;48.254;11.454;2023-05-10T16:45:53;1.20;;;0.80;;
40955;SDS011;26687;48.254;11.454;2023-05-10T16:48:53;1.67;;;0.80;;
40955;SDS011;26687;48.254;11.454;2023-05-10T16:51:53;1.57;;;0.70;;
40955;SDS011;26687;48.254;11.454;2023-05-10T16:54:54;2.05;;;1.25;;
40955;SDS011;26687;48.254;11.454;2023-05-10T16:57:54;1.20;;;0.80;;
40955;SDS011;26687;48.254;11.454;2023-05-10T17:00:59;1.90;;;0.80;;
40955;SDS011;26687;48.254;11.454;2023-05-10T17:03:59;2.10;;;0.80;;
40955;SDS011;26687;48.254;11.454;2023-05-10T17:07:00;0.50;;;0.47;;
40955;SDS011;26687;48.254;11.454;2023-05-10T17:10:00;1.02;;;0.40;;
40955;SDS011;26687;48.254;11.454;2023-05-10T17:13:00;0.43;;;0.32;;
40955;SDS011;26687;48.254;11.454;2023-05-10T17:16:00;0.43;;;0.43;;
40955;SDS011;26687;48.254;11.454;2023-05-10T17:22:04;1.05;;;0.50;;
40955;SDS011;26687;48.254;11.454;2023-05-10T17:25:04;1.37;;;0.30;;
40955;SDS011;26687;48.254;11.454;2023-05-10T17:28:04;0.52;;;0.30;;
40955;SDS011;26687;48.254;11.454;2023-05-10T17:31:04;1.13;;;0.30;;
40955;SDS011;26687;48.254;11.454;2023-05-10T17:34:05;2.27;;;0.90;;
40955;SDS011;26687;48.254;11.454;2023-05-10T17:37:08;2.10;;;1.10;;
40955;SDS011;26687;48.254;11.454;2023-05-10T17:40:08;1.05;;;0.95;;
40955;SDS011;26687;48.254;11.454;2023-05-10T17:43:09;1.30;;;0.65;;
40955;SDS011;26687;48.254;11.454;2023-05-10T17:46:09;2.13;;;0.77;;
40955;SDS011;26687;48.254;11.454;2023-05-10T17:49:10;0.80;;;0.55;;
40955;SDS011;26687;48.254;11.454;2023-05-10T17:52:10;0.87;;;0.60;;
40955;SDS011;26687;48.254;11.454;2023-05-10T17:55:10;1.25;;;0.70;;
40955;SDS011;26687;48.254;11.454;2023-05-10T17:58:11;1.10;;;0.73;;
40955;SDS011;26687;48.254;11.454;2023-05-10T18:01:11;1.73;;;1.10;;
40955;SDS011;26687;48.254;11.454;2023-05-10T18:04:11;2.00;;;1.17;;
40955;SDS011;26687;48.254;11.454;2023-05-10T18:07:12;1.92;;;1.40;;
40955;SDS011;26687;48.254;11.454;2023-05-10T18:10:12;1.50;;;1.40;;
40955;SDS011;26687;48.254;11.454;2023-05-10T18:13:12;2.17;;;1.33;;
40955;SDS011;26687;48.254;11.454;2023-05-10T18:16:12;2.35;;;1.58;;
40955;SDS011;26687;48.254;11.454;2023-05-10T18:19:12;1.60;;;1.00;;
40955;SDS011;26687;48.254;11.454;2023-05-10T18:22:13;2.00;;;0.90;;
40955;SDS011;26687;48.254;11.454;2023-05-10T18:25:13;2.03;;;1.00;;
40955;SDS011;26687;48.254;11.454;2023-05-10T18:28:13;1.65;;;1.15;;
40955;SDS011;26687;48.254;11.454;2023-05-10T18:31:13;3.80;;;1.50;;
40955;SDS011;26687;48.254;11.454;2023-05-10T18:34:14;2.10;;;1.80;;
40955;SDS011;26687;48.254;11.454;2023-05-10T18:37:14;1.98;;;1.30;;